Time;durP1;ratioP1;P1;durP2;ratioP2;P2;SDS_P1;SDS_P2;PMS_P1;PMS_P2;Temp;Humidity;BMP_temperature;BMP_pressure;BME280_temperature;BME280_humidity;BME280_pressure;Samples;Min_cycle;Max_cycle;Signal;HPM_P1;HPM_P2
2022/04/25 00:01:46;;;;;;;4.55;4.03;;;14.00;51.00;;;;;;5052162;28;20106;-58
2022/04/25 00:04:13;;;;;;;5.45;4.15;;;14.00;50.80;;;;;;5052924;28;20049;-59
2022/04/25 00:06:40;;;;;;;5.13;4.13;;;14.00;50.80;;;;;;5052068;28;20122;-57
2022/04/25 00:09:09;;;;;;;5.55;3.58;;;14.00;50.80;;;;;;5055010;28;20636;-57
2022/04/25 00:11:42;;;;;;;4.78;3.08;;;14.00;50.70;;;;;;5051136;28;20033;-57
2022/04/25 00:14:14;;;;;;;3.60;3.22;;;14.00;51.40;;;;;;5052206;28;20043;-59
2022/04/25 00:16:47;;;;;;;4.57;4.10;;;14.00;50.90;;;;;;5050565;28;20496;-59
2022/04/25 00:19:14;;;;;;;5.10;3.50;;;13.90;50.70;;;;;;5056619;28;20057;-58
2022/04/25 00:21:41;;;;;;;5.50;3.58;;;13.90;50.70;;;;;;5051595;28;20056;-59
2022/04/25 00:24:14;;;;;;;3.83;3.33;;;14.00;50.70;;;;;;5052266;28;20043;-58
2022/04/25 00:26:44;;;;;;;3.75;3.45;;;14.00;51.00;;;;;;5052791;28;20051;-59
2022/04/25 00:29:12;;;;;;;4.32;3.90;;;14.00;50.90;;;;;;5034972;28;20198;-58
2022/04/25 00:31:44;;;;;;;4.40;3.58;;;14.10;51.10;;;;;;5051208;28;20033;-58
2022/04/25 00:34:14;;;;;;;5.05;3.45;;;14.00;51.00;;;;;;5051634;28;20049;-59
2022/04/25 00:36:40;;;;;;;3.88;3.40;;;14.00;51.10;;;;;;5052920;28;20076;-59
2022/04/25 00:39:07;;;;;;;4.60;4.10;;;14.10;51.50;;;;;;5051201;28;20036;-59
2022/04/25 00:41:37;;;;;;;5.25;4.53;;;14.00;51.50;;;;;;5050749;28;20037;-59
2022/04/25 00:44:05;;;;;;;5.57;4.45;;;14.00;51.60;;;;;;5054152;28;20045;-57
2022/04/25 00:46:35;;;;;;;5.78;4.35;;;14.00;51.60;;;;;;5052050;28;20049;-58
2022/04/25 00:49:01;;;;;;;5.30;4.78;;;14.00;51.80;;;;;;5051134;28;20037;-57
2022/04/25 00:51:28;;;;;;;4.93;4.43;;;14.00;51.80;;;;;;5089382;22;20106;-53
2022/04/25 00:53:58;;;;;;;4.07;3.67;;;14.00;52.00;;;;;;5070969;28;20074;-50
2022/04/25 00:56:30;;;;;;;4.80;4.25;;;14.00;52.10;;;;;;5069880;28;20036;-49
2022/04/25 00:58:57;;;;;;;6.22;4.88;;;13.90;52.00;;;;;;5065516;28;20029;-49
2022/04/25 01:01:25;;;;;;;5.10;4.60;;;13.90;51.90;;;;;;5068869;28;20048;-53
2022/04/25 01:03:52;;;;;;;5.35;4.78;;;13.90;52.20;;;;;;5063031;28;20045;-53
2022/04/25 01:06:22;;;;;;;5.22;4.50;;;13.90;52.10;;;;;;5069035;28;20606;-49
2022/04/25 01:08:51;;;;;;;6.03;4.90;;;13.90;52.20;;;;;;5056013;28;20505;-52
2022/04/25 01:11:21;;;;;;;5.43;4.57;;;13.80;52.30;;;;;;5050799;28;20095;-54
2022/04/25 01:13:48;;;;;;;5.30;4.80;;;13.80;52.40;;;;;;5052788;28;20029;-54
2022/04/25 01:16:20;;;;;;;6.88;5.07;;;13.70;52.40;;;;;;5064785;28;20040;-54
2022/04/25 01:18:47;;;;;;;4.72;4.32;;;13.70;52.60;;;;;;5061461;28;20040;-54
2022/04/25 01:21:19;;;;;;;5.63;4.22;;;13.60;52.70;;;;;;5062312;28;20482;-54
2022/04/25 01:29:19;;;;;;;4.38;3.97;;;13.40;52.50;;;;;;5050864;28;20504;-55
2022/04/25 01:31:48;;;;;;;3.97;3.67;;;13.40;52.30;;;;;;5067915;28;20582;-57
2022/04/25 01:34:17;;;;;;;4.28;3.88;;;13.30;52.30;;;;;;5064530;28;20518;-54
2022/04/25 01:36:44;;;;;;;6.82;4.57;;;13.30;52.30;;;;;;5061197;28;20051;-54
2022/04/25 01:39:16;;;;;;;7.07;4.15;;;13.10;52.30;;;;;;5070232;28;20165;-57
2022/04/25 01:41:45;;;;;;;4.10;3.70;;;13.10;52.60;;;;;;5046633;28;20048;-56
2022/04/25 01:44:12;;;;;;;4.00;3.70;;;13.00;52.30;;;;;;5069198;28;20041;-54
2022/04/25 01:46:39;;;;;;;4.50;4.03;;;12.90;52.20;;;;;;5060469;28;20109;-56
2022/04/25 01:49:09;;;;;;;5.78;4.65;;;12.90;52.90;;;;;;5070586;28;20070;-54
2022/04/25 01:51:39;;;;;;;4.97;4.47;;;12.80;53.70;;;;;;5032928;28;20753;-56
2022/04/25 01:54:12;;;;;;;5.35;3.95;;;12.70;53.40;;;;;;5058433;28;20048;-55
2022/04/25 01:56:38;;;;;;;6.03;4.38;;;12.60;53.20;;;;;;5069108;28;20095;-53
2022/04/25 01:59:05;;;;;;;5.53;4.32;;;12.60;53.00;;;;;;5065931;28;20109;-55
2022/04/25 02:01:37;;;;;;;4.45;4.05;;;12.60;53.00;;;;;;5062663;28;20147;-54
2022/04/25 02:04:04;;;;;;;6.30;3.60;;;12.50;52.90;;;;;;5062241;28;20044;-54
2022/04/25 02:06:35;;;;;;;5.75;4.45;;;12.40;52.80;;;;;;5048729;28;20115;-53
2022/04/25 02:09:06;;;;;;;5.47;3.85;;;12.40;53.50;;;;;;5049411;28;20051;-55
2022/04/25 02:11:33;;;;;;;5.00;4.50;;;12.30;52.90;;;;;;5055740;28;20065;-56
2022/04/25 02:14:00;;;;;;;5.63;4.60;;;12.20;52.80;;;;;;5062267;28;20033;-53
2022/04/25 02:16:27;;;;;;;4.70;4.28;;;12.20;53.00;;;;;;5068151;28;20063;-53
2022/04/25 02:18:54;;;;;;;4.65;4.18;;;12.10;53.10;;;;;;5067119;28;20562;-54
2022/04/25 02:21:24;;;;;;;5.25;3.63;;;12.10;53.10;;;;;;5058372;28;20047;-54
2022/04/25 02:23:55;;;;;;;5.35;4.22;;;12.10;53.20;;;;;;5055902;28;20048;-52
2022/04/25 02:26:27;;;;;;;5.88;4.80;;;12.00;53.40;;;;;;5049100;28;20057;-56
2022/04/25 02:29:01;;;;;;;5.53;4.03;;;12.00;53.20;;;;;;5063916;28;20029;-52
2022/04/25 02:31:30;;;;;;;5.63;4.25;;;11.90;53.00;;;;;;5061252;28;20119;-55
2022/04/25 02:33:59;;;;;;;4.38;3.90;;;11.90;53.00;;;;;;5067889;28;20079;-52
2022/04/25 02:36:29;;;;;;;4.65;3.80;;;11.80;52.90;;;;;;5065552;28;20121;-50
2022/04/25 02:38:57;;;;;;;4.70;4.25;;;11.70;52.80;;;;;;5063104;28;20032;-52
2022/04/25 02:41:24;;;;;;;3.72;3.42;;;11.70;52.80;;;;;;5067367;28;20595;-53
2022/04/25 02:43:50;;;;;;;5.60;3.63;;;11.60;52.80;;;;;;5063965;28;20048;-54
2022/04/25 02:46:18;;;;;;;3.75;3.40;;;11.60;52.90;;;;;;5064958;28;20048;-54
2022/04/25 02:48:47;;;;;;;4.35;3.70;;;11.50;53.50;;;;;;5069278;28;20039;-52
2022/04/25 02:51:17;;;;;;;4.45;3.50;;;11.40;53.00;;;;;;5053898;28;20045;-55
2022/04/25 02:53:54;;;;;;;5.30;3.60;;;11.40;52.90;;;;;;5064099;28;20399;-53
2022/04/25 02:56:24;;;;;;;4.57;4.18;;;11.30;52.80;;;;;;5060804;28;20048;-52
2022/04/25 02:58:53;;;;;;;4.15;3.72;;;11.20;53.50;;;;;;5070831;28;20498;-56
2022/04/25 03:01:20;;;;;;;4.28;3.67;;;11.20;53.90;;;;;;5064481;28;20053;-52
2022/04/25 03:03:49;;;;;;;4.18;3.50;;;11.20;53.60;;;;;;5073151;28;20547;-54
2022/04/25 03:06:16;;;;;;;5.63;4.70;;;11.20;53.80;;;;;;5067104;28;20052;-53
2022/04/25 03:08:44;;;;;;;5.65;4.93;;;11.10;54.10;;;;;;5067339;28;20277;-55
2022/04/25 03:11:10;;;;;;;5.07;4.63;;;11.10;54.50;;;;;;5058965;28;20523;-55
2022/04/25 03:13:43;;;;;;;5.15;4.65;;;11.10;54.70;;;;;;5062237;28;20501;-55
2022/04/25 03:16:12;;;;;;;;;;;11.10;54.80;;;;;;5066885;28;20068;-56
2022/04/25 03:18:39;;;;;;;4.90;4.28;;;11.10;54.90;;;;;;5063954;28;19920;-54
2022/04/25 03:21:10;;;;;;;4.38;3.97;;;11.10;53.90;;;;;;5064466;28;20116;-55
2022/04/25 03:23:37;;;;;;;4.78;3.78;;;11.00;54.00;;;;;;5063051;28;20416;-58
2022/04/25 03:26:07;;;;;;;4.93;4.32;;;11.00;53.90;;;;;;5061139;28;20120;-56
2022/04/25 03:28:33;;;;;;;4.68;4.25;;;11.00;53.90;;;;;;5045987;28;20064;-55
2022/04/25 03:31:04;;;;;;;4.78;4.25;;;11.00;53.90;;;;;;5060962;28;20090;-55
2022/04/25 03:33:36;;;;;;;4.03;3.72;;;10.90;53.90;;;;;;5061583;28;20043;-55
2022/04/25 03:36:04;;;;;;;4.57;4.03;;;10.90;54.00;;;;;;5065074;28;20036;-54
2022/04/25 03:38:31;;;;;;;3.95;3.55;;;10.80;53.70;;;;;;5061963;28;20123;-54
2022/04/25 03:41:03;;;;;;;5.07;4.10;;;10.80;53.70;;;;;;5044707;28;20045;-55
2022/04/25 03:43:35;;;;;;;4.68;3.90;;;10.80;54.00;;;;;;5044260;28;20040;-55
2022/04/25 03:46:02;;;;;;;5.28;4.38;;;10.70;53.80;;;;;;5065543;28;20098;-55
2022/04/25 03:48:29;;;;;;;4.30;3.90;;;10.70;53.70;;;;;;5060849;28;20094;-55
2022/04/25 03:50:57;;;;;;;5.80;3.78;;;10.60;53.60;;;;;;5051303;28;20041;-56
2022/04/25 03:53:29;;;;;;;3.72;3.42;;;10.60;53.60;;;;;;5067169;28;20124;-51
2022/04/25 03:58:41;;;;;;;5.60;4.28;;;10.50;53.60;;;;;;5043633;28;20057;-54
2022/04/25 04:01:08;;;;;;;4.63;3.67;;;10.40;53.60;;;;;;5054794;28;20064;-51
2022/04/25 04:03:36;;;;;;;4.57;4.13;;;10.40;53.80;;;;;;5061504;28;20048;-54
2022/04/25 04:06:07;;;;;;;6.13;4.60;;;10.40;54.00;;;;;;5060757;28;20385;-56
2022/04/25 04:08:34;;;;;;;6.20;4.60;;;10.30;54.20;;;;;;5052891;28;20048;-54
2022/04/25 04:11:06;;;;;;;5.47;4.32;;;10.30;54.70;;;;;;5036051;28;20417;-53
2022/04/25 04:13:33;;;;;;;6.18;4.72;;;10.30;55.50;;;;;;5069428;28;20087;-51
2022/04/25 04:16:03;;;;;;;6.18;5.18;;;10.30;55.40;;;;;;5071086;28;20407;-54
2022/04/25 04:18:32;;;;;;;;;;;10.30;55.40;;;;;;5035149;28;20122;-55
2022/04/25 04:20:59;;;;;;;4.97;4.15;;;10.30;55.60;;;;;;5061460;28;19981;-55
2022/04/25 04:23:36;;;;;;;5.80;4.85;;;10.30;54.50;;;;;;5064462;28;20555;-56
2022/04/25 04:26:05;;;;;;;6.20;4.75;;;10.30;54.80;;;;;;5055301;28;20519;-50
2022/04/25 04:28:34;;;;;;;5.10;4.43;;;10.30;55.10;;;;;;5056705;28;20097;-50
2022/04/25 04:31:06;;;;;;;7.05;4.10;;;10.30;55.20;;;;;;5065843;28;20147;-54
2022/04/25 04:33:33;;;;;;;4.80;4.40;;;10.20;54.90;;;;;;5042692;28;20048;-55
2022/04/25 04:36:22;;;;;;;6.47;4.57;;;10.20;54.90;;;;;;5061493;28;20047;-51
2022/04/25 04:38:49;;;;;;;5.22;4.72;;;10.20;54.90;;;;;;5070193;28;20044;-53
2022/04/25 04:41:15;;;;;;;5.47;4.82;;;10.20;54.90;;;;;;5068408;28;20044;-54
2022/04/25 04:43:42;;;;;;;4.28;3.88;;;10.20;54.90;;;;;;5065951;28;20049;-51
2022/04/25 04:46:09;;;;;;;6.18;5.28;;;10.10;55.00;;;;;;5066670;28;20033;-54
2022/04/25 04:48:36;;;;;;;4.95;4.53;;;10.10;55.20;;;;;;5064305;28;20041;-54
2022/04/25 04:51:03;;;;;;;5.28;4.40;;;10.10;55.20;;;;;;5066026;28;20090;-55
2022/04/25 04:53:30;;;;;;;5.43;4.47;;;10.10;55.20;;;;;;5068093;28;20039;-55
2022/04/25 04:56:01;;;;;;;5.20;4.47;;;10.10;55.30;;;;;;5059974;28;20042;-55
2022/04/25 04:58:28;;;;;;;4.45;4.05;;;10.00;55.80;;;;;;5048249;28;20453;-52
2022/04/25 05:00:55;;;;;;;4.32;3.72;;;10.00;55.20;;;;;;5064609;28;20036;-54
2022/04/25 05:03:25;;;;;;;5.45;4.35;;;10.00;55.20;;;;;;5045323;28;20041;-53
2022/04/25 05:05:52;;;;;;;6.63;4.65;;;10.10;55.50;;;;;;5070721;28;20408;-54
2022/04/25 05:08:20;;;;;;;5.32;4.53;;;10.00;55.60;;;;;;5064384;28;20076;-55
2022/04/25 05:10:48;;;;;;;6.40;4.72;;;10.00;55.70;;;;;;5057075;28;20033;-57
2022/04/25 05:13:15;;;;;;;7.25;5.75;;;10.00;55.80;;;;;;5065277;28;20509;-57
2022/04/25 05:15:42;;;;;;;6.63;5.10;;;10.00;56.00;;;;;;5070400;28;20478;-56
2022/04/25 05:18:09;;;;;;;6.22;4.93;;;10.00;56.10;;;;;;5069886;28;20074;-55
2022/04/25 05:20:35;;;;;;;7.25;4.80;;;10.00;56.10;;;;;;5062432;28;20036;-53
2022/04/25 05:23:03;;;;;;;7.57;5.60;;;10.00;56.20;;;;;;5055225;28;20049;-56
2022/04/25 05:25:30;;;;;;;7.28;5.38;;;10.00;56.30;;;;;;5050453;28;20037;-57
2022/04/25 05:27:57;;;;;;;6.72;5.38;;;10.00;56.30;;;;;;5060804;28;20396;-54
2022/04/25 05:30:25;;;;;;;5.65;5.15;;;10.00;56.30;;;;;;5038686;28;20099;-54
2022/04/25 05:32:55;;;;;;;7.10;5.70;;;10.00;56.40;;;;;;5054008;28;20148;-53
2022/04/25 05:35:27;;;;;;;6.80;5.85;;;10.00;56.60;;;;;;5065201;28;20041;-55
2022/04/25 05:37:56;;;;;;;6.68;6.00;;;10.10;57.00;;;;;;5060613;28;20033;-54
2022/04/25 05:40:25;;;;;;;7.55;6.05;;;10.10;56.60;;;;;;5062426;28;20044;-48
2022/04/25 05:42:54;;;;;;;8.70;6.10;;;10.10;56.80;;;;;;5052996;28;20055;-49
2022/04/25 05:45:26;;;;;;;7.45;5.70;;;10.10;56.80;;;;;;5052742;28;20052;-48
2022/04/25 05:47:55;;;;;;;6.18;5.35;;;10.10;56.80;;;;;;5056470;28;20051;-49
2022/04/25 05:53:11;;;;;;;7.65;6.78;;;10.10;57.10;;;;;;5065105;28;20523;-49
2022/04/25 05:55:38;;;;;;;6.70;6.00;;;10.20;57.10;;;;;;5044472;28;20037;-48
2022/04/25 05:58:06;;;;;;;8.88;6.95;;;10.20;57.50;;;;;;5059448;28;20045;-49
2022/04/25 06:00:34;;;;;;;11.27;7.15;;;10.20;57.90;;;;;;5061123;28;20492;-49
2022/04/25 06:03:02;;;;;;;9.07;7.30;;;10.30;58.30;;;;;;5041589;28;20098;-49
2022/04/25 06:05:28;;;;;;;11.80;8.63;;;10.30;58.70;;;;;;5059670;28;20040;-51
2022/04/25 06:07:56;;;;;;;10.48;8.77;;;10.30;59.00;;;;;;5059708;28;20076;-47
2022/04/25 06:10:25;;;;;;;13.18;9.43;;;10.40;59.30;;;;;;5045799;28;20790;-49
2022/04/25 06:12:53;;;;;;;12.45;9.45;;;10.50;59.60;;;;;;5056483;28;20139;-51
2022/04/25 06:15:24;;;;;;;11.48;9.93;;;10.50;59.80;;;;;;5059363;28;20040;-51
2022/04/25 06:17:54;;;;;;;10.55;9.25;;;10.70;59.90;;;;;;5054361;28;20056;-50
2022/04/25 06:20:24;;;;;;;14.05;9.77;;;10.70;59.90;;;;;;5050094;28;20047;-50
2022/04/25 06:22:56;;;;;;;13.57;10.82;;;10.80;60.10;;;;;;5061311;28;20041;-50
2022/04/25 06:25:27;;;;;;;13.13;10.52;;;10.90;60.80;;;;;;5062904;28;20074;-50
2022/04/25 06:27:55;;;;;;;13.43;10.75;;;11.00;60.50;;;;;;5055187;28;20049;-50
2022/04/25 06:30:23;;;;;;;12.45;10.85;;;11.10;60.30;;;;;;5070302;28;20098;-48
2022/04/25 06:32:51;;;;;;;12.77;10.15;;;11.20;60.40;;;;;;5069132;28;20036;-50
2022/04/25 06:35:20;;;;;;;13.73;10.98;;;11.30;60.60;;;;;;5052071;28;20045;-49
2022/04/25 06:37:48;;;;;;;14.55;11.13;;;11.40;60.70;;;;;;5053987;28;20048;-46
2022/04/25 06:40:15;;;;;;;14.70;10.65;;;11.50;60.50;;;;;;5051725;28;20102;-49
2022/04/25 06:42:41;;;;;;;15.00;11.23;;;11.50;60.20;;;;;;5061045;28;20065;-47
2022/04/25 06:45:09;;;;;;;14.05;10.93;;;11.60;60.10;;;;;;5067672;28;20557;-48
2022/04/25 06:47:35;;;;;;;15.25;10.73;;;11.70;60.20;;;;;;5063445;28;20102;-51
2022/04/25 06:50:02;;;;;;;13.90;11.25;;;11.70;60.00;;;;;;5064414;28;20052;-52
2022/04/25 06:52:29;;;;;;;12.48;10.25;;;11.80;60.10;;;;;;5048549;28;20060;-50
2022/04/25 06:54:58;;;;;;;15.18;11.75;;;11.80;60.00;;;;;;5059268;28;20109;-51
2022/04/25 06:57:25;;;;;;;14.55;10.40;;;11.90;60.40;;;;;;5070419;28;20487;-50
2022/04/25 06:59:52;;;;;;;13.48;10.85;;;12.00;60.40;;;;;;5067709;28;20041;-49
2022/04/25 07:02:35;;;;;;;11.98;10.73;;;12.10;60.40;;;;;;5083584;22;20044;-51
2022/04/25 07:05:05;;;;;;;12.55;10.55;;;12.20;60.20;;;;;;5058529;28;20048;-46
2022/04/25 07:07:33;;;;;;;13.15;10.75;;;12.20;60.20;;;;;;5071828;28;20451;-46
2022/04/25 07:09:59;;;;;;;13.13;10.60;;;12.30;60.20;;;;;;5055801;28;20061;-49
2022/04/25 07:12:27;;;;;;;14.18;10.57;;;12.30;60.10;;;;;;5048832;28;20072;-49
2022/04/25 07:14:54;;;;;;;13.23;10.65;;;12.40;60.10;;;;;;5042469;28;20034;-47
2022/04/25 07:17:20;;;;;;;12.80;11.02;;;12.40;60.40;;;;;;5032885;28;20453;-46
2022/04/25 07:19:47;;;;;;;11.82;10.52;;;12.50;60.50;;;;;;5030011;28;20057;-48
2022/04/25 07:30:30;;;;;;;13.60;10.60;;;13.00;60.10;;;;;;5033048;28;20064;-48
2022/04/25 07:33:02;;;;;;;14.18;10.63;;;13.20;60.00;;;;;;5027371;28;20045;-47
2022/04/25 07:35:29;;;;;;;12.98;10.20;;;13.30;59.70;;;;;;5043128;28;20067;-47
2022/04/25 07:37:56;;;;;;;12.10;10.63;;;13.50;59.60;;;;;;5042601;28;20065;-49
2022/04/25 07:40:24;;;;;;;14.25;10.80;;;13.60;59.30;;;;;;5036426;28;20045;-48
2022/04/25 07:42:51;;;;;;;14.02;10.65;;;13.80;59.20;;;;;;5042963;28;20071;-48
2022/04/25 07:45:18;;;;;;;13.20;10.68;;;13.90;58.80;;;;;;5047737;28;20110;-51
2022/04/25 07:47:45;;;;;;;12.50;11.20;;;13.90;58.30;;;;;;5028161;28;20075;-49
2022/04/25 07:50:13;;;;;;;12.57;10.73;;;14.00;58.10;;;;;;5040495;28;20083;-47
2022/04/25 07:52:40;;;;;;;13.45;11.57;;;14.10;58.00;;;;;;5051798;28;20072;-47
2022/04/25 07:55:08;;;;;;;12.10;10.70;;;14.10;58.00;;;;;;5032187;28;20066;-49
2022/04/25 07:57:35;;;;;;;14.00;10.73;;;14.10;58.10;;;;;;5036659;28;20041;-50
2022/04/25 08:00:06;;;;;;;11.10;9.95;;;14.20;58.20;;;;;;5042389;28;20065;-48
2022/04/25 08:02:33;;;;;;;12.23;11.00;;;14.30;58.60;;;;;;5034579;28;20528;-50
2022/04/25 08:05:00;;;;;;;13.90;11.02;;;14.30;58.40;;;;;;5048073;28;20066;-49
2022/04/25 08:07:28;;;;;;;14.52;11.25;;;14.40;58.30;;;;;;5035707;28;20069;-49
2022/04/25 08:09:55;;;;;;;12.40;10.68;;;14.50;58.30;;;;;;5042142;28;20110;-49
2022/04/25 08:18:01;;;;;;;11.55;9.98;;;14.90;57.70;;;;;;5040193;28;20068;-47
2022/04/25 08:20:30;;;;;;;12.18;10.57;;;15.00;58.10;;;;;;5031352;28;20045;-52
2022/04/25 08:22:57;;;;;;;13.30;10.57;;;15.20;57.30;;;;;;5031433;28;20084;-48
2022/04/25 08:25:25;;;;;;;12.55;9.80;;;15.30;57.10;;;;;;5030096;28;20042;-49
2022/04/25 08:27:53;;;;;;;11.98;10.13;;;15.40;56.90;;;;;;5033682;28;20048;-52
2022/04/25 08:30:22;;;;;;;12.25;10.52;;;15.50;56.70;;;;;;5043738;28;20091;-48
2022/04/25 08:32:48;;;;;;;12.52;10.93;;;15.50;56.60;;;;;;5035298;28;20065;-48
2022/04/25 08:35:15;;;;;;;12.85;11.02;;;15.60;56.70;;;;;;5038325;28;20083;-48
2022/04/25 08:37:42;;;;;;;12.02;10.43;;;15.70;56.60;;;;;;5046008;28;20064;-47
2022/04/25 08:40:10;;;;;;;12.13;10.10;;;15.70;56.40;;;;;;5041211;28;20034;-47
2022/04/25 08:42:37;;;;;;;14.93;12.02;;;15.70;56.40;;;;;;5030966;28;20171;-47
2022/04/25 08:45:12;;;;;;;12.52;11.23;;;15.70;56.00;;;;;;5031175;28;20458;-50
2022/04/25 08:47:58;;;;;;;15.30;13.65;;;15.70;55.90;;;;;;5041942;28;20554;-48
2022/04/25 08:50:26;;;;;;;13.90;12.45;;;15.60;56.20;;;;;;5050666;28;20087;-46
2022/04/25 08:52:54;;;;;;;14.20;12.73;;;15.60;55.50;;;;;;5027924;28;20119;-45
2022/04/25 08:55:22;;;;;;;15.68;12.05;;;15.50;55.40;;;;;;5021914;28;20107;-46
2022/04/25 08:57:51;;;;;;;16.38;13.70;;;15.40;55.30;;;;;;5011405;28;20076;-46
2022/04/25 09:00:18;;;;;;;16.58;13.82;;;15.40;55.60;;;;;;5027105;28;20077;-47
2022/04/25 09:02:49;;;;;;;18.27;14.48;;;15.30;55.60;;;;;;5039826;28;20451;-48
2022/04/25 09:05:16;;;;;;;18.27;15.25;;;15.30;55.90;;;;;;5015836;28;20524;-47
2022/04/25 09:07:44;;;;;;;19.38;16.13;;;15.20;56.00;;;;;;5026838;28;20045;-50
2022/04/25 09:10:15;;;;;;;17.20;15.10;;;15.20;56.20;;;;;;5027849;28;20049;-45
2022/04/25 09:12:46;;;;;;;17.55;15.15;;;15.20;56.40;;;;;;5033280;28;20045;-47
2022/04/25 09:15:22;;;;;;;18.27;16.30;;;15.10;56.20;;;;;;5038678;28;20037;-49
2022/04/25 09:17:56;;;;;;;17.67;15.45;;;15.20;56.50;;;;;;5044938;28;20060;-48
2022/04/25 09:20:26;;;;;;;20.90;17.57;;;15.20;56.50;;;;;;5022281;28;20042;-45
2022/04/25 09:22:55;;;;;;;18.73;16.73;;;15.20;56.70;;;;;;5036542;28;20303;-46
2022/04/25 09:25:22;;;;;;;17.95;15.77;;;15.20;56.60;;;;;;5041610;28;20056;-47
2022/04/25 09:28:15;;;;;;;19.10;16.70;;;15.30;56.60;;;;;;5038726;28;20289;-48
2022/04/25 09:30:57;;;;;;;20.67;18.05;;;15.30;56.80;;;;;;5025374;28;20485;-48
2022/04/25 09:33:24;;;;;;;21.95;18.85;;;15.50;57.30;;;;;;5043343;28;20044;-45
2022/04/25 09:35:56;;;;;;;24.10;19.35;;;15.60;56.60;;;;;;5043100;28;20056;-51
2022/04/25 09:38:34;;;;;;;23.88;19.30;;;15.70;56.50;;;;;;5049158;28;20095;-45
2022/04/25 09:41:02;;;;;;;23.80;19.48;;;15.80;56.60;;;;;;5037693;28;20429;-46
2022/04/25 09:43:31;;;;;;;22.20;19.02;;;16.00;56.00;;;;;;5025544;28;20504;-51
2022/04/25 09:46:07;;;;;;;21.85;18.52;;;16.10;56.10;;;;;;5036468;28;20064;-45
2022/04/25 09:48:36;;;;;;;22.80;18.27;;;16.20;55.70;;;;;;5022072;28;20045;-51
2022/04/25 09:51:02;;;;;;;21.65;19.35;;;16.30;55.20;;;;;;5039485;28;20045;-47
2022/04/25 09:53:47;;;;;;;19.38;17.10;;;16.50;54.90;;;;;;5040591;28;20045;-46
2022/04/25 09:56:22;;;;;;;20.17;18.08;;;16.60;54.50;;;;;;5038571;28;20594;-50
2022/04/25 09:59:09;;;;;;;22.17;17.77;;;16.70;54.40;;;;;;5021040;28;20077;-45
2022/04/25 10:01:37;;;;;;;19.00;16.73;;;16.80;54.30;;;;;;5029037;28;20050;-47
2022/04/25 10:04:26;;;;;;;23.45;18.83;;;16.80;54.50;;;;;;5029648;28;20099;-47
2022/04/25 10:06:54;;;;;;;20.92;18.63;;;16.90;54.50;;;;;;5029416;28;20045;-45
2022/04/25 10:09:27;;;;;;;21.98;19.65;;;17.00;54.10;;;;;;5030555;28;20049;-46
2022/04/25 10:11:58;;;;;;;22.98;20.38;;;17.00;53.90;;;;;;5031619;28;20497;-49
2022/04/25 10:14:26;;;;;;;20.30;18.15;;;17.10;53.60;;;;;;5029950;28;20069;-53
2022/04/25 10:16:56;;;;;;;22.30;19.75;;;17.10;53.30;;;;;;5026676;28;20673;-45
2022/04/25 10:19:27;;;;;;;21.23;18.90;;;17.30;53.30;;;;;;5038406;28;20044;-47
2022/04/25 10:21:56;;;;;;;;;;;17.30;53.20;;;;;;5029282;28;20519;-46
2022/04/25 10:24:23;;;;;;;21.40;18.45;;;17.40;53.00;;;;;;5017786;28;19949;-50
2022/04/25 10:26:53;;;;;;;21.23;18.38;;;17.50;52.40;;;;;;5013031;28;20054;-45
2022/04/25 10:29:25;;;;;;;21.42;19.20;;;17.60;52.10;;;;;;5027973;28;20532;-48
2022/04/25 10:31:58;;;;;;;23.05;18.80;;;17.60;51.50;;;;;;5036378;28;20052;-51
2022/04/25 10:34:45;;;;;;;20.23;18.05;;;17.70;51.50;;;;;;5035798;28;20042;-47
2022/04/25 10:37:29;;;;;;;22.55;18.55;;;17.70;51.90;;;;;;5027722;28;20038;-50
2022/04/25 10:39:56;;;;;;;20.00;17.60;;;17.80;51.60;;;;;;5036258;28;20460;-47
2022/04/25 10:45:16;;;;;;;18.63;16.25;;;17.80;51.60;;;;;;5022024;28;20073;-47
2022/04/25 10:47:59;;;;;;;18.23;16.40;;;17.80;51.00;;;;;;5035603;28;20069;-50
2022/04/25 10:50:26;;;;;;;16.85;15.15;;;17.80;51.10;;;;;;5032709;28;20049;-51
2022/04/25 10:52:54;;;;;;;18.60;15.65;;;17.80;50.80;;;;;;5021452;28;20831;-51
2022/04/25 10:55:30;;;;;;;16.75;15.10;;;17.70;50.70;;;;;;5025294;28;20045;-50
2022/04/25 10:58:02;;;;;;;17.17;15.35;;;17.70;50.70;;;;;;5035588;28;20068;-53
2022/04/25 11:00:41;;;;;;;16.92;15.05;;;17.60;50.60;;;;;;5048454;28;20128;-48
2022/04/25 11:03:13;;;;;;;16.05;14.35;;;17.50;50.80;;;;;;5033478;28;20037;-51
2022/04/25 11:05:45;;;;;;;16.17;14.45;;;17.40;50.70;;;;;;5033735;28;20029;-50
2022/04/25 11:08:21;;;;;;;15.50;13.80;;;17.30;51.00;;;;;;5034451;28;20041;-51
2022/04/25 11:10:50;;;;;;;14.85;13.35;;;17.20;51.30;;;;;;5033593;28;20041;-51
2022/04/25 11:13:22;;;;;;;15.40;13.10;;;17.20;50.90;;;;;;5027920;28;20038;-48
2022/04/25 11:15:57;;;;;;;15.07;13.45;;;17.20;51.10;;;;;;5036292;28;20048;-50
2022/04/25 11:18:41;;;;;;;15.63;14.02;;;17.20;51.00;;;;;;5035099;28;20045;-48
2022/04/25 11:21:14;;;;;;;16.77;15.00;;;17.20;50.90;;;;;;5030622;28;20141;-52
2022/04/25 11:23:44;;;;;;;17.80;14.68;;;17.30;50.90;;;;;;5009740;28;20064;-50
2022/04/25 11:26:36;;;;;;;16.13;14.43;;;17.30;51.00;;;;;;5040651;28;20059;-54
2022/04/25 11:29:08;;;;;;;15.77;14.15;;;17.40;50.80;;;;;;5031948;28;20095;-51
2022/04/25 11:31:39;;;;;;;16.83;15.05;;;17.40;51.00;;;;;;5029296;28;20492;-51
2022/04/25 11:34:11;;;;;;;15.45;13.85;;;17.50;50.80;;;;;;5042049;28;20041;-49
2022/04/25 11:36:43;;;;;;;18.10;16.30;;;17.60;50.50;;;;;;5042908;28;20488;-49
2022/04/25 11:42:06;;;;;;;17.02;15.27;;;17.90;51.20;;;;;;5031708;28;20045;-52
2022/04/25 11:44:38;;;;;;;16.67;14.75;;;18.00;50.30;;;;;;5032786;28;20649;-50
2022/04/25 11:47:06;;;;;;;15.68;14.07;;;18.10;49.80;;;;;;5024060;28;20049;-47
2022/04/25 11:49:35;;;;;;;15.40;13.80;;;18.20;49.50;;;;;;5044475;28;20065;-54
2022/04/25 11:52:02;;;;;;;16.88;15.00;;;18.20;49.60;;;;;;5030254;28;20123;-51
2022/04/25 11:54:33;;;;;;;16.63;14.63;;;18.30;49.60;;;;;;5040789;28;20045;-55
2022/04/25 11:57:04;;;;;;;16.35;14.65;;;18.30;49.20;;;;;;5049279;28;20041;-46
2022/04/25 11:59:33;;;;;;;14.60;13.10;;;18.40;49.30;;;;;;5031522;28;20037;-55
2022/04/25 12:02:02;;;;;;;16.92;15.13;;;18.40;49.50;;;;;;5018595;28;20037;-50
2022/04/25 12:04:33;;;;;;;16.45;14.85;;;18.50;49.40;;;;;;5039135;28;20107;-51
2022/04/25 12:07:08;;;;;;;15.80;14.07;;;18.60;48.80;;;;;;5049405;28;20045;-48
2022/04/25 12:18:20;;;;;;;14.57;12.85;;;19.00;48.40;;;;;;5025619;28;20085;-48
2022/04/25 12:21:08;;;;;;;15.07;13.38;;;19.10;48.00;;;;;;5025434;28;20038;-46
2022/04/25 12:23:42;;;;;;;14.23;12.73;;;19.20;47.10;;;;;;5035159;28;20068;-51
2022/04/25 12:26:27;;;;;;;15.40;13.38;;;19.20;47.80;;;;;;5022056;28;20045;-52
2022/04/25 12:29:00;;;;;;;13.85;12.48;;;19.20;48.10;;;;;;5018208;28;20087;-52
2022/04/25 12:31:49;;;;;;;14.27;12.77;;;19.20;47.30;;;;;;5029595;28;20095;-51
2022/04/25 12:34:19;;;;;;;13.80;12.40;;;19.20;47.10;;;;;;5042307;28;20041;-47
2022/04/25 12:36:59;;;;;;;15.30;13.80;;;19.20;47.20;;;;;;5033485;28;20049;-48
2022/04/25 12:39:27;;;;;;;14.43;13.10;;;19.20;47.60;;;;;;5035575;28;20037;-52
2022/04/25 12:42:03;;;;;;;16.88;15.20;;;19.20;47.50;;;;;;5034828;28;20092;-49
2022/04/25 12:44:31;;;;;;;16.77;15.07;;;19.20;47.70;;;;;;5035441;28;20049;-49
2022/04/25 12:47:08;;;;;;;17.02;15.35;;;19.20;47.80;;;;;;5046160;28;20127;-51
2022/04/25 12:49:39;;;;;;;16.90;15.05;;;19.30;47.90;;;;;;5049946;28;20044;-49
2022/04/25 12:52:12;;;;;;;17.23;15.53;;;19.30;48.10;;;;;;5040138;28;20042;-54
2022/04/25 12:54:49;;;;;;;15.65;14.23;;;19.40;47.30;;;;;;5037755;28;20107;-51
2022/04/25 12:57:21;;;;;;;15.70;14.20;;;19.40;47.00;;;;;;5035598;28;20048;-47
2022/04/25 12:59:53;;;;;;;15.57;14.05;;;19.50;47.70;;;;;;5035981;28;20048;-49
2022/04/25 13:02:35;;;;;;;16.92;15.23;;;19.50;47.10;;;;;;5042011;28;20060;-47
2022/04/25 13:05:12;;;;;;;20.05;17.55;;;19.60;46.30;;;;;;5038816;28;20115;-52
2022/04/25 13:07:48;;;;;;;16.58;14.90;;;19.70;46.90;;;;;;5036687;28;20045;-49
2022/04/25 13:10:20;;;;;;;21.73;18.02;;;19.70;46.60;;;;;;5026352;28;20595;-47
2022/04/25 13:12:53;;;;;;;21.30;18.92;;;19.60;47.00;;;;;;5030739;28;20045;-50
2022/04/25 13:15:25;;;;;;;21.23;18.58;;;19.60;47.10;;;;;;5036766;28;20117;-50
2022/04/25 13:17:54;;;;;;;22.67;20.25;;;19.70;47.20;;;;;;5033452;28;20102;-50
2022/04/25 13:20:25;;;;;;;21.50;18.88;;;19.70;46.70;;;;;;5078982;22;20049;-53
2022/04/25 13:22:52;;;;;;;19.60;16.80;;;19.80;46.30;;;;;;5071867;28;20109;-51
2022/04/25 13:25:22;;;;;;;18.30;16.48;;;19.90;46.40;;;;;;5074952;28;20044;-53
2022/04/25 13:27:52;;;;;;;18.35;16.50;;;20.00;46.00;;;;;;5077409;28;20089;-50
2022/04/25 13:30:20;;;;;;;19.67;17.60;;;20.10;46.30;;;;;;5053553;28;20075;-52
2022/04/25 13:32:50;;;;;;;21.10;18.92;;;20.20;45.60;;;;;;5074899;28;20093;-54